Time;durP1;ratioP1;P1;durP2;ratioP2;P2;SDS_P1;SDS_P2;PMS_P1;PMS_P2;Temp;Humidity;BMP_temperature;BMP_pressure;BME280_temperature;BME280_humidity;BME280_pressure;Samples;Min_cycle;Max_cycle;Signal;HPM_P1;HPM_P2
2022/06/29 00:01:40;;;;;;;;;0.00;0.00;;;;;;;;5064292;28;8850;-80
2022/06/29 00:04:08;;;;;;;;;2.75;1.50;;;;;;;;5069484;28;8962;-80
2022/06/29 00:06:35;;;;;;;;;1.50;1.00;;;;;;;;5064992;28;8875;-80
2022/06/29 00:09:02;;;;;;;;;1.00;1.00;;;;;;;;5067206;28;8870;-81
2022/06/29 00:11:29;;;;;;;;;1.00;1.00;;;;;;;;5066936;28;8905;-80
2022/06/29 00:13:59;;;;;;;;;1.75;0.25;;;;;;;;5064930;28;8878;-81
2022/06/29 00:16:26;;;;;;;;;1.00;1.00;;;;;;;;5063832;28;8888;-79
2022/06/29 00:18:53;;;;;;;;;1.50;1.50;;;;;;;;5064317;28;8894;-81
2022/06/29 00:21:20;;;;;;;;;1.00;1.00;;;;;;;;5064551;28;8855;-79
2022/06/29 00:23:48;;;;;;;;;2.00;2.00;;;;;;;;5063348;28;8899;-80
2022/06/29 00:26:15;;;;;;;;;1.00;1.00;;;;;;;;5064208;28;8873;-79
2022/06/29 00:28:42;;;;;;;;;1.00;1.00;;;;;;;;5062138;28;8889;-80
2022/06/29 00:31:11;;;;;;;;;0.00;0.00;;;;;;;;5064919;28;8826;-81
2022/06/29 00:33:38;;;;;;;;;1.00;1.00;;;;;;;;5057398;28;8865;-81
2022/06/29 00:36:06;;;;;;;;;1.00;1.00;;;;;;;;5058783;28;9022;-80
2022/06/29 00:38:33;;;;;;;;;1.00;1.00;;;;;;;;5054788;28;8996;-80
2022/06/29 00:41:01;;;;;;;;;1.00;1.00;;;;;;;;5062614;28;9666;-80
2022/06/29 00:43:28;;;;;;;;;1.00;1.00;;;;;;;;5063534;28;8867;-80
2022/06/29 00:45:55;;;;;;;;;1.00;1.00;;;;;;;;5062728;28;8956;-79
2022/06/29 00:48:24;;;;;;;;;1.00;1.00;;;;;;;;5058692;28;8871;-80
2022/06/29 00:50:52;;;;;;;;;0.25;0.25;;;;;;;;5070265;28;8930;-79
2022/06/29 00:53:20;;;;;;;;;0.25;0.25;;;;;;;;5063067;28;8865;-79
2022/06/29 00:55:48;;;;;;;;;1.25;1.25;;;;;;;;5060745;28;8874;-79
2022/06/29 00:58:17;;;;;;;;;0.00;0.00;;;;;;;;5062061;28;8871;-79
2022/06/29 01:00:44;;;;;;;;;0.25;0.25;;;;;;;;5070044;28;8797;-79
2022/06/29 01:03:12;;;;;;;;;1.75;1.75;;;;;;;;5061409;28;9682;-80
2022/06/29 01:05:41;;;;;;;;;1.50;1.00;;;;;;;;5068625;28;8871;-81
2022/06/29 01:08:08;;;;;;;;;1.00;1.00;;;;;;;;5062707;28;8924;-79
2022/06/29 01:10:36;;;;;;;;;1.00;1.00;;;;;;;;5059783;28;8992;-80
2022/06/29 01:13:03;;;;;;;;;0.50;0.50;;;;;;;;5095969;28;8859;-81
2022/06/29 01:15:31;;;;;;;;;0.25;0.25;;;;;;;;5062803;28;8863;-81
2022/06/29 01:17:58;;;;;;;;;1.50;1.50;;;;;;;;5063731;28;8896;-80
2022/06/29 01:20:25;;;;;;;;;1.00;1.00;;;;;;;;5062549;28;8858;-79
2022/06/29 01:22:54;;;;;;;;;0.50;0.50;;;;;;;;5063821;28;9678;-80
2022/06/29 01:25:22;;;;;;;;;0.00;0.00;;;;;;;;5061994;28;8866;-79
2022/06/29 01:27:49;;;;;;;;;0.50;0.50;;;;;;;;5061964;28;9043;-79
2022/06/29 01:30:16;;;;;;;;;1.00;1.00;;;;;;;;5062475;28;8859;-80
2022/06/29 01:32:44;;;;;;;;;1.00;1.00;;;;;;;;5061461;28;8968;-81
2022/06/29 01:35:13;;;;;;;;;1.00;1.00;;;;;;;;5074854;28;8921;-81
2022/06/29 01:37:42;;;;;;;;;1.00;1.00;;;;;;;;5062752;28;8879;-81
2022/06/29 01:40:13;;;;;;;;;0.00;0.00;;;;;;;;5063905;28;8961;-80
2022/06/29 01:42:41;;;;;;;;;1.00;1.00;;;;;;;;5057219;28;9021;-80
2022/06/29 01:45:10;;;;;;;;;0.00;0.00;;;;;;;;5063700;28;9201;-80
2022/06/29 01:47:37;;;;;;;;;1.33;1.33;;;;;;;;5062119;28;9217;-80
2022/06/29 01:50:05;;;;;;;;;1.00;1.00;;;;;;;;5068876;28;9314;-81
2022/06/29 01:52:33;;;;;;;;;2.00;0.00;;;;;;;;5068527;28;9314;-80
2022/06/29 01:55:00;;;;;;;;;5.00;2.00;;;;;;;;5068948;28;9092;-80
2022/06/29 01:57:29;;;;;;;;;0.33;0.33;;;;;;;;5075216;28;9416;-80
2022/06/29 01:59:56;;;;;;;;;1.00;1.00;;;;;;;;5069849;28;9290;-80
2022/06/29 02:02:23;;;;;;;;;0.00;0.00;;;;;;;;5069242;28;9332;-79
2022/06/29 02:04:50;;;;;;;;;1.00;1.00;;;;;;;;5071684;28;9453;-80
2022/06/29 02:07:18;;;;;;;;;1.00;1.00;;;;;;;;5068174;28;9336;-81
2022/06/29 02:09:45;;;;;;;;;1.00;1.00;;;;;;;;5069025;28;9421;-81
2022/06/29 02:12:12;;;;;;;;;1.00;1.00;;;;;;;;5067813;28;9224;-79
2022/06/29 02:14:41;;;;;;;;;0.00;0.00;;;;;;;;5073939;28;9177;-79
2022/06/29 02:17:08;;;;;;;;;1.00;1.00;;;;;;;;5068436;28;9123;-80
2022/06/29 02:19:36;;;;;;;;;0.00;0.00;;;;;;;;5074148;28;9205;-79
2022/06/29 02:22:03;;;;;;;;;1.00;1.00;;;;;;;;5067338;28;9091;-80
2022/06/29 02:24:31;;;;;;;;;0.00;0.00;;;;;;;;5070054;28;9278;-80
2022/06/29 02:26:58;;;;;;;;;0.67;0.67;;;;;;;;5068899;28;9013;-80
2022/06/29 02:29:26;;;;;;;;;0.00;0.00;;;;;;;;5069515;28;10087;-80
2022/06/29 02:34:46;;;;;;;;;0.00;0.00;;;;;;;;5065651;28;9226;-80
2022/06/29 02:37:13;;;;;;;;;1.00;1.00;;;;;;;;5071686;28;9179;-80
2022/06/29 02:39:42;;;;;;;;;1.00;1.00;;;;;;;;5066989;28;9462;-81
2022/06/29 02:42:10;;;;;;;;;1.00;1.00;;;;;;;;5069769;28;9323;-81
2022/06/29 02:44:37;;;;;;;;;1.33;1.33;;;;;;;;5070498;28;9311;-81
2022/06/29 02:47:07;;;;;;;;;0.67;0.67;;;;;;;;5061679;28;10174;-80
2022/06/29 02:49:35;;;;;;;;;1.33;1.33;;;;;;;;5065428;28;9307;-80
2022/06/29 02:52:02;;;;;;;;;1.00;1.00;;;;;;;;5068326;28;9282;-81
2022/06/29 02:54:30;;;;;;;;;0.00;0.00;;;;;;;;5068244;28;9342;-79
2022/06/29 02:56:57;;;;;;;;;1.00;1.00;;;;;;;;5068825;28;9273;-81
2022/06/29 02:59:24;;;;;;;;;1.00;1.00;;;;;;;;5069541;28;9380;-79
2022/06/29 03:01:52;;;;;;;;;1.00;1.00;;;;;;;;5066714;28;9279;-80
2022/06/29 03:04:21;;;;;;;;;1.00;1.00;;;;;;;;5071430;28;9355;-80
2022/06/29 03:06:48;;;;;;;;;0.00;0.00;;;;;;;;5067083;28;9484;-80
2022/06/29 03:09:16;;;;;;;;;0.25;0.25;;;;;;;;5065110;28;9406;-80
2022/06/29 03:11:43;;;;;;;;;0.50;0.50;;;;;;;;5066252;28;9442;-81
2022/06/29 03:14:10;;;;;;;;;0.00;0.00;;;;;;;;5065312;28;9551;-81
2022/06/29 03:16:38;;;;;;;;;1.00;1.00;;;;;;;;5065082;28;9548;-79
2022/06/29 03:19:05;;;;;;;;;0.00;0.00;;;;;;;;5061109;28;9620;-79
2022/06/29 03:21:34;;;;;;;;;1.00;1.00;;;;;;;;5064511;28;9574;-79
2022/06/29 03:24:03;;;;;;;;;1.00;1.00;;;;;;;;5066281;28;9684;-79
2022/06/29 03:26:31;;;;;;;;;0.75;0.75;;;;;;;;5064440;28;9495;-80
2022/06/29 03:28:58;;;;;;;;;2.25;0.75;;;;;;;;5066610;28;9431;-80
2022/06/29 03:31:26;;;;;;;;;1.00;1.00;;;;;;;;5069947;28;9514;-79
2022/06/29 03:33:53;;;;;;;;;0.25;0.25;;;;;;;;5064714;28;9580;-79
2022/06/29 03:36:20;;;;;;;;;1.00;1.00;;;;;;;;5065159;28;9397;-81
2022/06/29 03:38:49;;;;;;;;;0.25;0.25;;;;;;;;5064737;28;9555;-80
2022/06/29 03:41:17;;;;;;;;;1.00;1.00;;;;;;;;5065376;28;9469;-81
2022/06/29 03:43:44;;;;;;;;;1.00;1.00;;;;;;;;5063660;28;9597;-81
2022/06/29 03:46:11;;;;;;;;;0.00;0.00;;;;;;;;5066436;28;9578;-81
2022/06/29 03:48:39;;;;;;;;;2.25;1.00;;;;;;;;5064430;28;9606;-81
2022/06/29 03:51:06;;;;;;;;;0.00;0.00;;;;;;;;5064604;28;9558;-80
2022/06/29 03:53:33;;;;;;;;;0.00;0.00;;;;;;;;5065050;28;10358;-80
2022/06/29 03:56:02;;;;;;;;;1.75;1.00;;;;;;;;5064549;28;9586;-80
2022/06/29 03:58:29;;;;;;;;;1.00;1.00;;;;;;;;5065796;28;10407;-81
2022/06/29 04:00:57;;;;;;;;;1.00;0.00;;;;;;;;5062196;28;9540;-80
2022/06/29 04:03:24;;;;;;;;;1.00;1.00;;;;;;;;5064747;28;9662;-80
2022/06/29 04:05:52;;;;;;;;;1.50;1.00;;;;;;;;5067796;28;9496;-80
2022/06/29 04:08:19;;;;;;;;;2.00;0.00;;;;;;;;5063352;28;9703;-79
2022/06/29 04:10:46;;;;;;;;;3.50;1.00;;;;;;;;5064397;28;9628;-78
2022/06/29 04:13:15;;;;;;;;;1.00;1.00;;;;;;;;5063206;28;9577;-81
2022/06/29 04:15:42;;;;;;;;;1.00;1.00;;;;;;;;5065244;28;9546;-80
2022/06/29 04:18:10;;;;;;;;;0.75;0.75;;;;;;;;5063654;28;10250;-81
2022/06/29 04:23:22;;;;;;;;;1.00;1.00;;;;;;;;5063611;28;9689;-80
2022/06/29 04:25:49;;;;;;;;;1.00;1.00;;;;;;;;5064952;28;9822;-80
2022/06/29 04:28:19;;;;;;;;;1.00;1.00;;;;;;;;5064489;28;9687;-80
2022/06/29 04:30:46;;;;;;;;;0.75;0.75;;;;;;;;5058558;28;9579;-80
2022/06/29 04:33:13;;;;;;;;;1.00;1.00;;;;;;;;5064522;28;9642;-79
2022/06/29 04:35:40;;;;;;;;;1.00;1.00;;;;;;;;5072909;28;9597;-81
2022/06/29 04:38:08;;;;;;;;;1.00;1.00;;;;;;;;5062241;28;9756;-80
2022/06/29 04:40:35;;;;;;;;;1.00;1.00;;;;;;;;5063119;28;9448;-80
2022/06/29 04:43:02;;;;;;;;;1.00;1.00;;;;;;;;5064058;28;9575;-81
2022/06/29 04:48:15;;;;;;;;;1.25;1.25;;;;;;;;5056173;28;9358;-79
2022/06/29 04:50:43;;;;;;;;;0.00;0.00;;;;;;;;5064296;28;9424;-80
2022/06/29 04:53:10;;;;;;;;;0.00;0.00;;;;;;;;5063128;28;9442;-81
2022/06/29 04:55:37;;;;;;;;;1.00;1.00;;;;;;;;5059805;28;9393;-81
2022/06/29 04:58:04;;;;;;;;;2.00;2.00;;;;;;;;5063063;28;9396;-80
2022/06/29 05:00:34;;;;;;;;;1.00;1.00;;;;;;;;5062614;28;10591;-79
2022/06/29 05:03:01;;;;;;;;;1.00;1.00;;;;;;;;5074292;28;9284;-80
2022/06/29 05:05:28;;;;;;;;;1.00;1.00;;;;;;;;5063107;28;9193;-79
2022/06/29 05:07:55;;;;;;;;;2.00;2.00;;;;;;;;5063345;28;9285;-81
2022/06/29 05:10:23;;;;;;;;;1.00;1.00;;;;;;;;5050726;28;9147;-80
2022/06/29 05:12:50;;;;;;;;;2.67;2.00;;;;;;;;5063767;28;9205;-79
2022/06/29 05:15:17;;;;;;;;;1.00;1.00;;;;;;;;5062457;28;9111;-80
2022/06/29 05:17:47;;;;;;;;;0.75;0.75;;;;;;;;5063929;28;9911;-80
2022/06/29 05:20:15;;;;;;;;;1.00;1.00;;;;;;;;5064295;28;8843;-79
2022/06/29 05:22:44;;;;;;;;;2.00;2.00;;;;;;;;5067729;28;9001;-80
2022/06/29 05:25:11;;;;;;;;;2.75;2.75;;;;;;;;5063550;28;8953;-80
2022/06/29 05:27:39;;;;;;;;;2.33;1.00;;;;;;;;5062450;28;8867;-80
2022/06/29 05:30:08;;;;;;;;;2.00;2.00;;;;;;;;5058958;28;9541;-81
2022/06/29 05:32:36;;;;;;;;;0.00;0.00;;;;;;;;5061853;28;8875;-80
2022/06/29 05:35:06;;;;;;;;;2.00;2.00;;;;;;;;5073043;28;8952;-81
2022/06/29 05:37:33;;;;;;;;;5.75;2.00;;;;;;;;5061254;28;9501;-79
2022/06/29 05:40:01;;;;;;;;;1.75;1.75;;;;;;;;5062342;28;8874;-81
2022/06/29 05:42:29;;;;;;;;;3.00;3.00;;;;;;;;5062899;28;8913;-80
2022/06/29 05:45:01;;;;;;;;;3.00;2.00;;;;;;;;5064128;28;8879;-80
2022/06/29 05:47:28;;;;;;;;;2.00;2.00;;;;;;;;5063771;28;8855;-78
2022/06/29 05:49:57;;;;;;;;;2.25;2.25;;;;;;;;5098154;28;9005;-80
2022/06/29 05:52:26;;;;;;;;;3.75;3.75;;;;;;;;5056588;28;8897;-79
2022/06/29 05:54:53;;;;;;;;;3.00;3.00;;;;;;;;5062612;28;8875;-79
2022/06/29 05:57:20;;;;;;;;;2.75;2.75;;;;;;;;5062896;28;8882;-80
2022/06/29 05:59:47;;;;;;;;;0.25;0.25;;;;;;;;5064264;28;9657;-79
2022/06/29 06:02:15;;;;;;;;;1.50;1.50;;;;;;;;5061694;28;8827;-81
2022/06/29 06:04:42;;;;;;;;;1.75;1.75;;;;;;;;5062886;28;8879;-81
2022/06/29 06:07:09;;;;;;;;;2.00;2.00;;;;;;;;5060539;28;8897;-79
2022/06/29 06:09:38;;;;;;;;;2.50;2.50;;;;;;;;5062945;28;8863;-80
2022/06/29 06:12:06;;;;;;;;;3.50;2.00;;;;;;;;5062304;28;8855;-81
2022/06/29 06:14:34;;;;;;;;;3.00;3.00;;;;;;;;5063404;28;8965;-81
2022/06/29 06:17:01;;;;;;;;;3.25;3.25;;;;;;;;5062743;28;8858;-80
2022/06/29 06:19:28;;;;;;;;;2.00;2.00;;;;;;;;5065598;28;8882;-79
2022/06/29 06:21:56;;;;;;;;;8.00;3.25;;;;;;;;5061579;28;8893;-79
2022/06/29 06:24:23;;;;;;;;;6.00;4.25;;;;;;;;5061952;28;8859;-80
2022/06/29 06:26:52;;;;;;;;;6.25;4.75;;;;;;;;5063142;28;8920;-79
2022/06/29 06:29:19;;;;;;;;;5.00;5.00;;;;;;;;5062090;28;8896;-79
2022/06/29 06:31:47;;;;;;;;;2.25;2.25;;;;;;;;5062154;28;8831;-79
2022/06/29 06:34:14;;;;;;;;;3.75;3.75;;;;;;;;5065191;28;8846;-81
2022/06/29 06:36:41;;;;;;;;;6.25;4.50;;;;;;;;5069185;28;8859;-80
2022/06/29 06:39:08;;;;;;;;;3.00;3.00;;;;;;;;5066860;28;8885;-79
2022/06/29 06:41:35;;;;;;;;;2.50;2.50;;;;;;;;5065109;28;8869;-81
2022/06/29 06:44:04;;;;;;;;;3.50;3.50;;;;;;;;5099793;28;8871;-80
2022/06/29 06:46:33;;;;;;;;;4.00;2.75;;;;;;;;5060378;28;8871;-79
2022/06/29 06:49:01;;;;;;;;;3.00;3.00;;;;;;;;5058974;28;8871;-80
2022/06/29 06:51:28;;;;;;;;;5.00;3.00;;;;;;;;5064850;28;8862;-80
2022/06/29 06:53:56;;;;;;;;;3.00;3.00;;;;;;;;5064581;28;8874;-80
2022/06/29 06:56:24;;;;;;;;;2.50;2.50;;;;;;;;5068699;28;8879;-80
2022/06/29 06:58:51;;;;;;;;;4.00;2.25;;;;;;;;5064516;28;9008;-80
2022/06/29 07:01:20;;;;;;;;;2.00;2.00;;;;;;;;5065853;28;8818;-81
2022/06/29 07:03:48;;;;;;;;;2.00;2.00;;;;;;;;5065016;28;8878;-81
2022/06/29 07:06:15;;;;;;;;;2.50;2.50;;;;;;;;5068107;28;8860;-79
2022/06/29 07:08:42;;;;;;;;;2.50;2.25;;;;;;;;5065554;28;8863;-80
2022/06/29 07:11:10;;;;;;;;;4.50;3.50;;;;;;;;5065540;28;8878;-78
2022/06/29 07:13:37;;;;;;;;;1.50;1.50;;;;;;;;5065899;28;8868;-81
2022/06/29 07:16:06;;;;;;;;;2.00;2.00;;;;;;;;5069076;28;8862;-82
2022/06/29 07:18:35;;;;;;;;;4.00;2.25;;;;;;;;5066531;28;8874;-81
2022/06/29 07:21:03;;;;;;;;;3.00;3.00;;;;;;;;5068181;28;8998;-81
2022/06/29 07:23:30;;;;;;;;;2.00;2.00;;;;;;;;5064462;28;8896;-80
2022/06/29 07:25:58;;;;;;;;;2.50;2.50;;;;;;;;5063063;28;8887;-80
2022/06/29 07:28:25;;;;;;;;;2.75;2.75;;;;;;;;5066036;28;8883;-79
2022/06/29 07:30:52;;;;;;;;;3.25;2.00;;;;;;;;5061905;28;8807;-80
2022/06/29 07:33:20;;;;;;;;;2.00;2.00;;;;;;;;5064794;28;8988;-81
2022/06/29 07:35:48;;;;;;;;;3.25;3.25;;;;;;;;5075022;28;9010;-79
2022/06/29 07:38:17;;;;;;;;;3.00;3.00;;;;;;;;5064467;28;8906;-80
2022/06/29 07:40:45;;;;;;;;;3.00;3.00;;;;;;;;5063967;28;8867;-80
2022/06/29 07:43:12;;;;;;;;;4.00;2.25;;;;;;;;5064241;28;9013;-80
2022/06/29 07:45:40;;;;;;;;;3.00;3.00;;;;;;;;5071766;28;8899;-80
2022/06/29 07:48:08;;;;;;;;;2.60;2.60;;;;;;;;5066344;28;8897;-80
2022/06/29 07:50:35;;;;;;;;;5.00;3.00;;;;;;;;5066752;28;8933;-80
2022/06/29 07:53:04;;;;;;;;;3.00;3.00;;;;;;;;5072069;28;8881;-80
2022/06/29 07:55:31;;;;;;;;;3.20;2.80;;;;;;;;5063951;28;8871;-80
2022/06/29 07:57:59;;;;;;;;;3.00;3.00;;;;;;;;5065097;28;8843;-79
2022/06/29 08:00:26;;;;;;;;;4.60;3.60;;;;;;;;5063864;28;8791;-79
2022/06/29 08:02:53;;;;;;;;;2.60;2.60;;;;;;;;5064996;28;8970;-79
2022/06/29 08:05:21;;;;;;;;;3.20;3.20;;;;;;;;5068538;28;8880;-80
2022/06/29 08:07:48;;;;;;;;;2.00;2.00;;;;;;;;5064762;28;8866;-79
2022/06/29 08:10:17;;;;;;;;;3.00;3.00;;;;;;;;5065000;28;8896;-79
2022/06/29 08:12:44;;;;;;;;;0.00;0.00;;;;;;;;5071692;28;8868;-79
2022/06/29 08:15:12;;;;;;;;;4.60;4.00;;;;;;;;5064828;28;9693;-79
2022/06/29 08:17:39;;;;;;;;;1.60;1.60;;;;;;;;5095271;28;9666;-79
2022/06/29 08:20:09;;;;;;;;;3.00;3.00;;;;;;;;5065173;28;9776;-79
2022/06/29 08:22:36;;;;;;;;;2.00;2.00;;;;;;;;5058616;28;8862;-79
2022/06/29 08:25:03;;;;;;;;;4.40;3.00;;;;;;;;5056888;28;8874;-79
2022/06/29 08:27:33;;;;;;;;;3.00;3.00;;;;;;;;5064208;28;8851;-79
2022/06/29 08:30:00;;;;;;;;;2.40;2.40;;;;;;;;5064239;28;9660;-79
2022/06/29 08:32:28;;;;;;;;;1.60;1.60;;;;;;;;5064080;28;8805;-79
2022/06/29 08:34:59;;;;;;;;;2.00;2.00;;;;;;;;5056251;28;9758;-80
2022/06/29 08:37:27;;;;;;;;;1.00;1.00;;;;;;;;5064249;28;8917;-79
2022/06/29 08:39:54;;;;;;;;;2.80;2.80;;;;;;;;5064198;28;8866;-79
2022/06/29 08:42:23;;;;;;;;;2.00;2.00;;;;;;;;5066741;28;8866;-79
2022/06/29 08:44:53;;;;;;;;;2.00;2.00;;;;;;;;5055095;28;9624;-80
2022/06/29 08:47:20;;;;;;;;;3.00;1.00;;;;;;;;5063111;28;9688;-80
2022/06/29 08:49:47;;;;;;;;;2.00;2.00;;;;;;;;5060986;28;8861;-80
2022/06/29 08:52:16;;;;;;;;;1.80;1.80;;;;;;;;5061413;28;8920;-80
2022/06/29 08:54:46;;;;;;;;;1.80;1.80;;;;;;;;5064053;28;8866;-80
2022/06/29 08:57:13;;;;;;;;;1.40;1.40;;;;;;;;5058425;28;8931;-80
2022/06/29 08:59:41;;;;;;;;;0.80;0.00;;;;;;;;5063842;28;8874;-79
2022/06/29 09:02:10;;;;;;;;;2.00;0.00;;;;;;;;5070688;28;8799;-79
2022/06/29 09:04:38;;;;;;;;;1.80;1.80;;;;;;;;5068814;28;8844;-79
2022/06/29 09:07:05;;;;;;;;;3.60;1.80;;;;;;;;5051485;28;8912;-79
2022/06/29 09:09:32;;;;;;;;;2.60;1.80;;;;;;;;5069167;28;8856;-79
2022/06/29 09:12:00;;;;;;;;;1.60;1.60;;;;;;;;5063908;28;8896;-79
2022/06/29 09:14:28;;;;;;;;;1.80;1.80;;;;;;;;5095226;28;8870;-79
2022/06/29 09:16:58;;;;;;;;;2.40;2.40;;;;;;;;5064040;28;8893;-79
2022/06/29 09:19:29;;;;;;;;;1.80;1.80;;;;;;;;5074567;28;8844;-79
2022/06/29 09:21:57;;;;;;;;;1.80;1.80;;;;;;;;5064825;28;8890;-79
2022/06/29 09:24:26;;;;;;;;;2.00;2.00;;;;;;;;5063847;28;8872;-79
2022/06/29 09:26:55;;;;;;;;;2.00;2.00;;;;;;;;5061940;28;8869;-79
2022/06/29 09:29:24;;;;;;;;;1.00;1.00;;;;;;;;5063973;28;8890;-79
2022/06/29 09:32:13;;;;;;;;;2.60;2.60;;;;;;;;5060084;28;8815;-79
2022/06/29 09:34:43;;;;;;;;;1.20;1.20;;;;;;;;5068694;28;9713;-79
2022/06/29 09:37:13;;;;;;;;;1.40;1.40;;;;;;;;5062171;28;8851;-79
2022/06/29 09:39:42;;;;;;;;;2.60;1.00;;;;;;;;5062175;28;8867;-79
2022/06/29 09:42:12;;;;;;;;;1.00;1.00;;;;;;;;5063426;28;8886;-79
2022/06/29 09:44:39;;;;;;;;;2.40;2.40;;;;;;;;5062741;28;8920;-79
2022/06/29 09:47:09;;;;;;;;;2.00;2.00;;;;;;;;5062324;28;8895;-79
2022/06/29 09:49:37;;;;;;;;;3.40;2.00;;;;;;;;5065880;28;8878;-79
2022/06/29 09:52:08;;;;;;;;;2.00;2.00;;;;;;;;5062719;28;8858;-78
2022/06/29 09:54:40;;;;;;;;;1.80;1.80;;;;;;;;5057570;28;8982;-79
2022/06/29 09:57:08;;;;;;;;;1.60;1.60;;;;;;;;5061821;28;9972;-79
2022/06/29 10:02:37;;;;;;;;;2.60;2.60;;;;;;;;5052622;28;8795;-79
2022/06/29 10:05:10;;;;;;;;;3.00;0.80;;;;;;;;5061435;28;8871;-80
2022/06/29 10:07:40;;;;;;;;;2.20;1.20;;;;;;;;5062952;28;8862;-79
2022/06/29 10:10:10;;;;;;;;;2.40;2.20;;;;;;;;5057503;28;8861;-80
2022/06/29 10:16:17;;;;;;;;;1.80;1.80;;;;;;;;5065537;28;8823;-80
2022/06/29 10:18:57;;;;;;;;;2.80;1.40;;;;;;;;5066931;28;9632;-80
2022/06/29 10:21:27;;;;;;;;;2.20;1.40;;;;;;;;5064327;28;8892;-79
2022/06/29 10:23:57;;;;;;;;;1.60;1.60;;;;;;;;5066067;28;8867;-80
2022/06/29 10:26:45;;;;;;;;;0.80;0.80;;;;;;;;5066809;28;8999;-79
2022/06/29 10:29:30;;;;;;;;;1.00;1.00;;;;;;;;5054648;28;9635;-80
2022/06/29 10:32:21;;;;;;;;;0.00;0.00;;;;;;;;5065975;28;8823;-79
2022/06/29 10:37:33;;;;;;;;;1.60;1.60;;;;;;;;5062385;28;8859;-79
2022/06/29 10:40:05;;;;;;;;;1.00;1.00;;;;;;;;5066682;28;8854;-79
2022/06/29 10:45:24;;;;;;;;;1.00;1.00;;;;;;;;5066646;28;8977;-80
2022/06/29 10:48:14;;;;;;;;;3.20;2.00;;;;;;;;5063240;28;8907;-79
2022/06/29 10:50:42;;;;;;;;;1.80;1.80;;;;;;;;5063592;28;9012;-79
2022/06/29 10:53:11;;;;;;;;;2.40;1.80;;;;;;;;5065898;28;8890;-79
2022/06/29 10:55:41;;;;;;;;;3.00;3.00;;;;;;;;5067262;28;8878;-79
2022/06/29 10:58:09;;;;;;;;;2.40;2.20;;;;;;;;5065538;28;8882;-79
2022/06/29 11:00:39;;;;;;;;;3.80;1.00;;;;;;;;5066332;28;8783;-79
2022/06/29 11:03:25;;;;;;;;;2.00;2.00;;;;;;;;5068195;28;8894;-79
2022/06/29 11:16:59;;;;;;;;;3.20;1.80;;;;;;;;5053508;28;9574;-80
2022/06/29 11:19:29;;;;;;;;;2.00;2.00;;;;;;;;5069500;28;8882;-80
2022/06/29 11:22:15;;;;;;;;;2.00;2.00;;;;;;;;5065683;28;8866;-80
2022/06/29 11:24:53;;;;;;;;;2.00;2.00;;;;;;;;5065476;28;8871;-80
2022/06/29 11:27:33;;;;;;;;;1.60;1.60;;;;;;;;5064461;28;8878;-80
2022/06/29 11:30:00;;;;;;;;;1.00;1.00;;;;;;;;5062390;28;9676;-81
2022/06/29 11:32:41;;;;;;;;;1.60;1.60;;;;;;;;5065648;28;8803;-79
2022/06/29 11:35:10;;;;;;;;;1.80;1.80;;;;;;;;5075485;28;9726;-79
2022/06/29 11:37:38;;;;;;;;;0.00;0.00;;;;;;;;5061660;28;9039;-79
2022/06/29 11:40:06;;;;;;;;;1.00;1.00;;;;;;;;5065735;28;8867;-78
2022/06/29 11:45:20;;;;;;;;;1.60;0.00;;;;;;;;5065704;28;8843;-78
2022/06/29 11:47:52;;;;;;;;;1.00;1.00;;;;;;;;5064116;28;8889;-79
2022/06/29 11:50:19;;;;;;;;;1.00;1.00;;;;;;;;5068199;28;8870;-78
2022/06/29 11:52:47;;;;;;;;;3.60;0.60;;;;;;;;5065493;28;8885;-79
2022/06/29 11:55:15;;;;;;;;;1.00;1.00;;;;;;;;5064068;28;8894;-79
2022/06/29 11:57:44;;;;;;;;;0.00;0.00;;;;;;;;5065313;28;8909;-78
2022/06/29 12:00:12;;;;;;;;;1.60;1.00;;;;;;;;5064031;28;8874;-79
2022/06/29 12:02:40;;;;;;;;;1.00;1.00;;;;;;;;5065496;28;9529;-79
2022/06/29 12:05:08;;;;;;;;;1.00;1.00;;;;;;;;5084586;28;9651;-80
2022/06/29 12:07:35;;;;;;;;;1.00;1.00;;;;;;;;5064854;28;8879;-80
2022/06/29 12:10:03;;;;;;;;;0.00;0.00;;;;;;;;5064654;28;8886;-80
2022/06/29 12:12:30;;;;;;;;;0.60;0.60;;;;;;;;5062232;28;8866;-79
2022/06/29 12:14:58;;;;;;;;;1.20;1.20;;;;;;;;5064673;28;8862;-80
2022/06/29 12:17:26;;;;;;;;;0.00;0.00;;;;;;;;5095774;28;8886;-80
2022/06/29 12:19:53;;;;;;;;;0.40;0.40;;;;;;;;5100352;27;8983;-80
2022/06/29 12:22:21;;;;;;;;;1.80;1.00;;;;;;;;5062320;28;8885;-80
2022/06/29 12:24:48;;;;;;;;;0.00;0.00;;;;;;;;5064868;28;9624;-80
2022/06/29 12:27:15;;;;;;;;;0.00;0.00;;;;;;;;5064584;28;8855;-79
2022/06/29 12:29:42;;;;;;;;;0.00;0.00;;;;;;;;5062773;28;8932;-80
2022/06/29 12:32:11;;;;;;;;;0.60;0.60;;;;;;;;5060992;28;8935;-79
2022/06/29 12:34:40;;;;;;;;;0.40;0.00;;;;;;;;5064543;28;8983;-79
2022/06/29 12:37:08;;;;;;;;;0.20;0.20;;;;;;;;5063955;28;8886;-79
2022/06/29 12:39:35;;;;;;;;;2.00;0.20;;;;;;;;5067684;28;8951;-80
2022/06/29 12:42:04;;;;;;;;;0.00;0.00;;;;;;;;5064327;28;8894;-80
2022/06/29 12:44:31;;;;;;;;;0.00;0.00;;;;;;;;5063663;28;8875;-80
2022/06/29 12:46:59;;;;;;;;;1.00;1.00;;;;;;;;5063463;28;8901;-80
2022/06/29 12:49:27;;;;;;;;;0.00;0.00;;;;;;;;5067146;28;8858;-80
2022/06/29 12:51:55;;;;;;;;;0.20;0.20;;;;;;;;5062952;28;8894;-80
2022/06/29 12:54:22;;;;;;;;;2.20;0.80;;;;;;;;5063906;28;8878;-80
2022/06/29 12:56:50;;;;;;;;;0.00;0.00;;;;;;;;5062623;28;8870;-80
2022/06/29 12:59:19;;;;;;;;;0.60;0.60;;;;;;;;5064428;28;8968;-81
2022/06/29 13:01:47;;;;;;;;;0.00;0.00;;;;;;;;5062663;28;8831;-80
2022/06/29 13:04:15;;;;;;;;;0.00;0.00;;;;;;;;5067502;28;8898;-79
2022/06/29 13:06:43;;;;;;;;;1.60;0.00;;;;;;;;5063269;28;8865;-80
2022/06/29 13:09:11;;;;;;;;;0.00;0.00;;;;;;;;5061944;28;8871;-80
2022/06/29 13:11:38;;;;;;;;;0.00;0.00;;;;;;;;5063406;28;8858;-80
2022/06/29 13:14:05;;;;;;;;;1.40;0.00;;;;;;;;5062805;28;8870;-80
2022/06/29 13:16:33;;;;;;;;;0.00;0.00;;;;;;;;5062198;28;9833;-80
2022/06/29 13:19:00;;;;;;;;;3.20;3.20;;;;;;;;5064182;28;8850;-80
2022/06/29 13:21:28;;;;;;;;;3.40;3.40;;;;;;;;5065170;28;8900;-79
2022/06/29 13:23:57;;;;;;;;;0.00;0.00;;;;;;;;5055278;28;8947;-80
2022/06/29 13:26:24;;;;;;;;;0.00;0.00;;;;;;;;5062965;28;9782;-80
2022/06/29 13:28:52;;;;;;;;;0.00;0.00;;;;;;;;5064015;28;8830;-80
2022/06/29 13:31:19;;;;;;;;;0.00;0.00;;;;;;;;5061513;28;8841;-80
2022/06/29 13:33:47;;;;;;;;;0.00;0.00;;;;;;;;5063672;28;8858;-80
2022/06/29 13:36:14;;;;;;;;;0.00;0.00;;;;;;;;5061887;28;9612;-80
2022/06/29 13:38:43;;;;;;;;;0.00;0.00;;;;;;;;5065932;28;8855;-80
2022/06/29 13:41:14;;;;;;;;;3.00;3.00;;;;;;;;5060461;28;8859;-80
2022/06/29 13:43:41;;;;;;;;;0.00;0.00;;;;;;;;5063483;28;8898;-80
2022/06/29 13:46:09;;;;;;;;;0.00;0.00;;;;;;;;5059712;28;8858;-80
2022/06/29 13:48:36;;;;;;;;;0.00;0.00;;;;;;;;5062240;28;8866;-80
2022/06/29 13:51:04;;;;;;;;;1.20;0.00;;;;;;;;5063658;28;8889;-80
2022/06/29 13:53:33;;;;;;;;;0.00;0.00;;;;;;;;5056567;28;8958;-80
2022/06/29 13:56:01;;;;;;;;;0.40;0.00;;;;;;;;5061962;28;8977;-80
2022/06/29 13:58:29;;;;;;;;;1.00;0.00;;;;;;;;5062397;28;9725;-80
2022/06/29 14:00:57;;;;;;;;;0.40;0.40;;;;;;;;5064138;28;8815;-80
2022/06/29 14:03:24;;;;;;;;;0.00;0.00;;;;;;;;5060112;28;8867;-80
2022/06/29 14:05:52;;;;;;;;;0.60;0.60;;;;;;;;5067798;28;8875;-80
2022/06/29 14:08:20;;;;;;;;;0.00;0.00;;;;;;;;5062088;28;8859;-80
2022/06/29 14:10:48;;;;;;;;;0.00;0.00;;;;;;;;5066221;28;8871;-80
2022/06/29 14:13:15;;;;;;;;;0.00;0.00;;;;;;;;5063072;28;8897;-80
2022/06/29 14:15:44;;;;;;;;;0.00;0.00;;;;;;;;5060459;28;8858;-81
2022/06/29 14:18:12;;;;;;;;;2.00;0.00;;;;;;;;5063426;28;8902;-80
2022/06/29 14:20:40;;;;;;;;;0.00;0.00;;;;;;;;5061513;28;8871;-80
2022/06/29 14:23:07;;;;;;;;;0.00;0.00;;;;;;;;5062225;28;8890;-80
2022/06/29 14:25:35;;;;;;;;;0.00;0.00;;;;;;;;5061556;28;8859;-81
2022/06/29 14:28:02;;;;;;;;;0.00;0.00;;;;;;;;5061894;28;8876;-80
2022/06/29 14:30:29;;;;;;;;;0.00;0.00;;;;;;;;5062228;28;8803;-80
2022/06/29 14:32:58;;;;;;;;;0.00;0.00;;;;;;;;5061981;28;8894;-80
2022/06/29 14:35:26;;;;;;;;;2.00;0.00;;;;;;;;5073140;28;8969;-80
2022/06/29 14:37:54;;;;;;;;;0.00;0.00;;;;;;;;5062209;28;8871;-80
2022/06/29 14:40:21;;;;;;;;;1.40;1.40;;;;;;;;5069819;28;8863;-80
2022/06/29 14:42:49;;;;;;;;;0.00;0.00;;;;;;;;5063010;28;8854;-81
2022/06/29 14:45:17;;;;;;;;;0.00;0.00;;;;;;;;5061597;28;8948;-80
2022/06/29 14:47:44;;;;;;;;;0.40;0.40;;;;;;;;5062632;28;8859;-80
2022/06/29 14:50:14;;;;;;;;;2.00;0.60;;;;;;;;5055302;28;8964;-80
2022/06/29 14:52:41;;;;;;;;;2.00;0.00;;;;;;;;5062597;28;8989;-80
2022/06/29 14:55:09;;;;;;;;;0.00;0.00;;;;;;;;5062239;28;9185;-80
2022/06/29 14:57:37;;;;;;;;;0.00;0.00;;;;;;;;5062429;28;8897;-80
2022/06/29 15:00:06;;;;;;;;;2.00;0.00;;;;;;;;5065726;28;8935;-80
2022/06/29 15:02:33;;;;;;;;;0.00;0.00;;;;;;;;5065770;28;8867;-80
2022/06/29 15:05:01;;;;;;;;;0.00;0.00;;;;;;;;5070975;28;8883;-80
2022/06/29 15:07:29;;;;;;;;;1.00;1.00;;;;;;;;5064896;28;8870;-80
2022/06/29 15:09:57;;;;;;;;;1.00;0.00;;;;;;;;5065733;28;8850;-80
2022/06/29 15:12:24;;;;;;;;;0.00;0.00;;;;;;;;5065316;28;8872;-81
2022/06/29 15:14:51;;;;;;;;;1.00;1.00;;;;;;;;5065774;28;8883;-80
2022/06/29 15:17:19;;;;;;;;;0.40;0.40;;;;;;;;5065632;28;8875;-80
2022/06/29 15:19:48;;;;;;;;;0.00;0.00;;;;;;;;5065738;28;8947;-80
2022/06/29 15:22:15;;;;;;;;;0.00;0.00;;;;;;;;5063728;28;8896;-80
2022/06/29 15:24:44;;;;;;;;;0.00;0.00;;;;;;;;5065477;28;8977;-80
2022/06/29 15:27:13;;;;;;;;;0.00;0.00;;;;;;;;5066495;28;8890;-80
2022/06/29 15:29:41;;;;;;;;;0.00;0.00;;;;;;;;5068770;28;8856;-80
2022/06/29 15:32:09;;;;;;;;;0.00;0.00;;;;;;;;5053636;28;8807;-87
2022/06/29 15:40:08;;;;;;;;;0.00;0.00;;;;;;;;5062574;28;8858;-80
2022/06/29 15:42:35;;;;;;;;;2.80;0.00;;;;;;;;5053508;28;8887;-80